createdAt,value
2022-10-13T00:01:12.293Z,24.60
2022-10-13T00:03:41.778Z,28.67
2022-10-13T00:06:10.742Z,26.02
2022-10-13T00:08:38.560Z,27.70
2022-10-13T00:11:14.137Z,24.65
2022-10-13T00:13:41.978Z,26.50
2022-10-13T00:16:10.319Z,30.30
2022-10-13T00:18:38.077Z,30.88
2022-10-13T00:21:10.610Z,31.70
2022-10-13T00:23:38.680Z,32.53
2022-10-13T00:26:07.709Z,29.77
2022-10-13T00:28:34.897Z,34.85
2022-10-13T00:31:02.091Z,29.38
2022-10-13T00:33:29.315Z,30.02
2022-10-13T00:35:56.486Z,29.63
2022-10-13T00:38:23.794Z,31.40
2022-10-13T00:40:54.567Z,28.88
2022-10-13T00:43:28.287Z,29.58
2022-10-13T00:45:55.398Z,29.23
2022-10-13T00:48:28.910Z,28.75
2022-10-13T00:50:58.218Z,31.00
2022-10-13T00:53:32.878Z,29.30
2022-10-13T00:56:01.142Z,23.75
2022-10-13T00:58:31.579Z,28.98
2022-10-13T01:00:59.681Z,25.58
2022-10-13T01:03:27.079Z,27.70
2022-10-13T01:05:59.875Z,23.83
2022-10-13T01:08:28.914Z,27.10
2022-10-13T01:11:28.974Z,27.35
2022-10-13T01:14:25.094Z,26.95
2022-10-13T01:17:09.005Z,27.00
2022-10-13T01:22:24.019Z,27.10
2022-10-13T01:25:12.043Z,27.40
2022-10-13T01:28:07.197Z,27.10
2022-10-13T01:30:49.991Z,27.60
2022-10-13T01:33:35.532Z,36.30
2022-10-13T01:36:31.582Z,31.40
2022-10-13T01:39:09.487Z,30.88
2022-10-13T01:41:45.159Z,34.22
2022-10-13T01:44:25.146Z,33.78
2022-10-13T01:46:55.314Z,29.40
2022-10-13T01:49:27.006Z,31.90
2022-10-13T01:51:56.543Z,32.70
2022-10-13T01:54:23.658Z,31.20
2022-10-13T01:56:55.670Z,37.38
2022-10-13T01:59:25.378Z,33.22
2022-10-13T02:02:19.330Z,37.92
2022-10-13T02:07:40.138Z,37.25
2022-10-13T02:10:23.114Z,38.28
2022-10-13T02:12:56.685Z,38.43
2022-10-13T02:15:35.141Z,31.55
2022-10-13T02:18:05.930Z,31.88
2022-10-13T02:20:33.714Z,37.88
2022-10-13T02:23:08.382Z,36.80
2022-10-13T02:25:36.246Z,37.85
2022-10-13T02:28:04.603Z,33.17
2022-10-13T02:30:35.835Z,41.08
2022-10-13T02:33:03.472Z,45.47
2022-10-13T02:35:32.784Z,44.13
2022-10-13T02:38:01.079Z,36.45
2022-10-13T02:40:28.699Z,36.92
2022-10-13T02:42:55.842Z,33.63
2022-10-13T02:45:23.023Z,39.00
2022-10-13T02:47:50.171Z,40.08
2022-10-13T02:50:17.407Z,44.15
2022-10-13T02:52:44.519Z,33.38
2022-10-13T02:55:11.638Z,34.42
2022-10-13T02:57:38.784Z,33.47
2022-10-13T03:00:07.172Z,50.28
2022-10-13T03:02:34.342Z,34.08
2022-10-13T03:05:01.540Z,36.13
2022-10-13T03:07:28.718Z,32.47
2022-10-13T03:09:56.351Z,37.15
2022-10-13T03:12:23.513Z,39.17
2022-10-13T03:14:50.722Z,33.47
2022-10-13T03:17:17.983Z,34.35
2022-10-13T03:19:45.342Z,33.53
2022-10-13T03:22:17.680Z,32.78
2022-10-13T03:24:45.983Z,33.40
2022-10-13T03:27:13.093Z,38.58
2022-10-13T03:29:40.183Z,35.13
2022-10-13T03:32:07.493Z,37.38
2022-10-13T03:34:34.597Z,42.47
2022-10-13T03:37:01.719Z,38.85
2022-10-13T03:39:33.444Z,36.95
2022-10-13T03:42:00.902Z,39.03
2022-10-13T03:44:28.030Z,37.75
2022-10-13T03:46:55.184Z,42.15
2022-10-13T03:49:22.318Z,38.60
2022-10-13T03:51:49.603Z,38.05
2022-10-13T03:54:16.759Z,38.40
2022-10-13T03:56:46.914Z,41.45
2022-10-13T03:59:16.876Z,37.65
2022-10-13T04:01:44.170Z,42.30
2022-10-13T04:04:12.616Z,39.47
2022-10-13T04:06:42.424Z,41.80
2022-10-13T04:09:09.602Z,38.55
2022-10-13T04:11:36.768Z,40.60
2022-10-13T04:14:03.900Z,38.13
2022-10-13T04:16:31.531Z,42.03
2022-10-13T04:19:05.359Z,39.53
2022-10-13T04:21:33.833Z,41.63
2022-10-13T04:24:02.193Z,34.08
2022-10-13T04:26:32.313Z,45.47
2022-10-13T04:29:09.206Z,38.20
2022-10-13T04:31:37.003Z,47.67
2022-10-13T04:34:04.324Z,37.88
2022-10-13T04:36:32.677Z,50.03
2022-10-13T04:38:59.876Z,44.03
2022-10-13T04:41:26.968Z,42.15
2022-10-13T04:43:54.676Z,37.85
2022-10-13T04:46:25.291Z,46.88
2022-10-13T04:48:55.512Z,43.50
2022-10-13T04:51:26.363Z,40.55
2022-10-13T04:53:58.052Z,46.75
2022-10-13T04:56:25.832Z,45.55
2022-10-13T04:58:53.235Z,50.30
2022-10-13T05:01:23.576Z,42.97
2022-10-13T05:03:52.757Z,52.55
2022-10-13T05:06:28.631Z,48.70
2022-10-13T05:08:56.730Z,47.40
2022-10-13T05:11:25.434Z,47.42
2022-10-13T05:13:53.314Z,60.78
2022-10-13T05:16:22.227Z,55.40
2022-10-13T05:18:50.573Z,59.30
2022-10-13T05:21:22.874Z,62.05
2022-10-13T05:23:53.991Z,56.72
2022-10-13T05:26:29.218Z,54.83
2022-10-13T05:29:01.308Z,60.40
2022-10-13T05:31:32.179Z,60.33
2022-10-13T05:34:00.651Z,59.13
2022-10-13T05:36:31.183Z,53.83
2022-10-13T05:39:06.210Z,66.30
2022-10-13T05:41:33.532Z,60.92
2022-10-13T05:44:12.230Z,69.53
2022-10-13T05:46:46.809Z,65.45
2022-10-13T05:49:13.905Z,57.22
2022-10-13T05:51:45.511Z,56.90
2022-10-13T05:54:13.173Z,63.72
2022-10-13T05:56:44.879Z,66.93
2022-10-13T05:59:14.792Z,54.63
2022-10-13T06:01:47.088Z,60.35
2022-10-13T06:04:20.289Z,65.20
2022-10-13T06:06:49.002Z,59.08
2022-10-13T06:09:16.616Z,61.95
2022-10-13T06:11:43.770Z,68.95
2022-10-13T06:14:10.850Z,71.03
2022-10-13T06:16:38.007Z,65.72
2022-10-13T06:19:06.047Z,66.30
2022-10-13T06:21:35.499Z,59.78
2022-10-13T06:24:03.197Z,59.20
2022-10-13T06:26:30.350Z,60.33
2022-10-13T06:28:59.733Z,64.75
2022-10-13T06:31:27.927Z,58.40
2022-10-13T06:33:55.139Z,61.85
2022-10-13T06:36:22.551Z,54.50
2022-10-13T06:38:49.671Z,60.20
2022-10-13T06:41:19.374Z,52.92
2022-10-13T06:43:46.551Z,47.55
2022-10-13T06:46:14.083Z,48.33
2022-10-13T06:48:41.334Z,48.58
2022-10-13T06:51:11.037Z,49.78
2022-10-13T06:53:38.307Z,46.65
2022-10-13T06:56:07.310Z,46.28
2022-10-13T06:58:37.662Z,48.00
2022-10-13T07:01:06.258Z,44.50
2022-10-13T07:03:33.717Z,45.47
2022-10-13T07:06:05.740Z,47.63
2022-10-13T07:08:34.008Z,47.47
2022-10-13T07:11:16.172Z,47.42
2022-10-13T07:13:48.129Z,45.28
2022-10-13T07:16:16.270Z,51.95
2022-10-13T07:18:43.448Z,50.00
2022-10-13T07:21:10.560Z,50.47
2022-10-13T07:23:37.700Z,48.70
2022-10-13T07:26:15.073Z,44.38
2022-10-13T07:28:43.066Z,47.97
2022-10-13T07:31:14.047Z,51.38
2022-10-13T07:33:43.285Z,45.45
2022-10-13T07:36:12.402Z,43.58
2022-10-13T07:38:39.751Z,47.42
2022-10-13T07:41:09.321Z,45.33
2022-10-13T07:43:36.554Z,43.58
2022-10-13T07:46:06.157Z,41.45
2022-10-13T07:48:33.987Z,44.47
2022-10-13T07:51:07.653Z,42.00
2022-10-13T07:53:35.524Z,42.25
2022-10-13T07:56:04.320Z,48.55
2022-10-13T07:58:31.529Z,40.53
2022-10-13T08:01:00.184Z,50.40
2022-10-13T08:03:28.277Z,42.53
2022-10-13T08:05:55.539Z,36.63
2022-10-13T08:08:24.945Z,41.95
2022-10-13T08:13:20.020Z,35.35
2022-10-13T08:15:47.281Z,33.83
2022-10-13T08:18:14.878Z,33.53
2022-10-13T08:20:44.105Z,36.35
2022-10-13T08:23:12.757Z,36.63
2022-10-13T08:25:44.715Z,38.08
2022-10-13T08:28:25.884Z,34.80
2022-10-13T08:30:57.696Z,32.88
2022-10-13T08:33:26.375Z,34.70
2022-10-13T08:35:53.854Z,30.75
2022-10-13T08:38:21.799Z,34.15
2022-10-13T08:40:50.937Z,31.48
2022-10-13T08:43:22.414Z,34.45
2022-10-13T08:45:58.286Z,32.40
2022-10-13T08:48:38.664Z,30.05
2022-10-13T08:51:07.670Z,30.38
2022-10-13T08:53:43.471Z,27.02
2022-10-13T08:56:27.767Z,30.60
2022-10-13T08:58:56.570Z,30.05
2022-10-13T09:01:29.093Z,27.52
2022-10-13T09:04:14.746Z,31.30
2022-10-13T09:06:53.049Z,26.17
2022-10-13T09:09:20.415Z,22.55
2022-10-13T09:11:50.003Z,28.15
2022-10-13T09:14:26.023Z,25.70
2022-10-13T09:16:56.965Z,31.63
2022-10-13T09:19:33.928Z,30.83
2022-10-13T09:22:19.819Z,26.67
2022-10-13T09:24:47.355Z,17.33
2022-10-13T09:27:17.303Z,20.20
2022-10-13T09:29:44.861Z,22.42
2022-10-13T09:32:23.849Z,22.30
2022-10-13T09:34:52.799Z,21.25
2022-10-13T09:37:23.262Z,18.13
2022-10-13T09:40:19.620Z,26.05
2022-10-13T09:42:54.158Z,23.35
2022-10-13T09:45:24.666Z,26.13
2022-10-13T09:47:54.851Z,19.63
2022-10-13T09:50:28.251Z,21.10
2022-10-13T09:55:36.801Z,21.88
2022-10-13T09:58:14.424Z,18.48
2022-10-13T10:00:41.929Z,22.80
2022-10-13T10:03:23.466Z,21.88
2022-10-13T10:05:55.707Z,22.42
2022-10-13T10:08:28.956Z,23.25
2022-10-13T10:11:05.473Z,23.45
2022-10-13T10:13:32.638Z,26.92
2022-10-13T10:16:46.561Z,21.10
2022-10-13T10:19:24.751Z,22.38
2022-10-13T10:21:58.380Z,21.27
2022-10-13T10:24:49.396Z,19.38
2022-10-13T10:27:37.723Z,20.33
2022-10-13T10:30:17.166Z,18.85
2022-10-13T10:32:54.550Z,18.08
2022-10-13T10:35:37.266Z,20.38
2022-10-13T10:38:18.542Z,24.60
2022-10-13T10:40:51.769Z,18.63
2022-10-13T10:43:36.668Z,21.70
2022-10-13T10:46:12.960Z,22.50
2022-10-13T10:48:40.322Z,23.63
2022-10-13T10:51:09.567Z,19.63
2022-10-13T10:53:45.176Z,19.27
2022-10-13T10:56:42.573Z,22.58
2022-10-13T10:59:29.444Z,15.65
2022-10-13T11:01:59.483Z,14.02
2022-10-13T11:04:35.815Z,18.13
2022-10-13T11:07:04.210Z,17.23
2022-10-13T11:09:43.442Z,19.20
2022-10-13T11:12:19.696Z,17.98
2022-10-13T11:14:47.068Z,16.60
2022-10-13T11:17:38.759Z,12.18
2022-10-13T11:20:26.083Z,17.70
2022-10-13T11:22:59.319Z,12.73
2022-10-13T11:28:21.407Z,15.48
2022-10-13T11:31:04.826Z,13.73
2022-10-13T11:33:38.776Z,15.20
2022-10-13T11:36:30.674Z,9.55
2022-10-13T11:39:12.886Z,10.75
2022-10-13T11:41:51.262Z,12.00
2022-10-13T11:44:34.855Z,12.18
2022-10-13T11:47:18.929Z,15.25
2022-10-13T11:50:25.969Z,13.88
2022-10-13T11:52:53.462Z,12.50
2022-10-13T11:55:39.744Z,15.43
2022-10-13T11:58:14.849Z,14.90
2022-10-13T12:01:06.496Z,10.13
2022-10-13T12:03:35.165Z,14.18
2022-10-13T12:06:05.304Z,11.93
2022-10-13T12:08:36.656Z,23.75
2022-10-13T12:11:07.521Z,15.38
2022-10-13T12:13:36.937Z,12.15
2022-10-13T12:16:08.026Z,13.75
2022-10-13T12:18:38.308Z,20.52
2022-10-13T12:21:13.435Z,10.32
2022-10-13T12:23:41.129Z,11.63
2022-10-13T12:26:15.791Z,13.73
2022-10-13T12:28:55.836Z,14.43
2022-10-13T12:31:26.863Z,12.45
2022-10-13T12:34:01.600Z,12.63
2022-10-13T12:36:31.339Z,12.25
2022-10-13T12:39:02.138Z,10.88
2022-10-13T12:41:35.580Z,9.63
2022-10-13T12:44:06.678Z,11.00
2022-10-13T12:46:37.127Z,12.77
2022-10-13T12:49:25.107Z,10.68
2022-10-13T12:52:16.519Z,9.10
2022-10-13T12:54:49.886Z,11.25
2022-10-13T12:57:22.559Z,15.15
2022-10-13T12:59:49.670Z,12.40
2022-10-13T13:02:24.680Z,10.70
2022-10-13T13:04:51.987Z,17.23
2022-10-13T13:07:29.750Z,11.80
2022-10-13T13:10:01.403Z,11.23
2022-10-13T13:12:30.306Z,11.25
2022-10-13T13:14:58.636Z,10.77
2022-10-13T13:17:57.716Z,10.10
2022-10-13T13:20:27.043Z,12.15
2022-10-13T13:22:55.241Z,16.40
2022-10-13T13:25:22.749Z,11.45
2022-10-13T13:27:50.135Z,10.60
2022-10-13T13:30:20.600Z,15.50
2022-10-13T13:32:49.646Z,15.48
2022-10-13T13:35:17.115Z,21.30
2022-10-13T13:37:50.487Z,9.50
2022-10-13T13:40:21.041Z,12.80
2022-10-13T13:42:48.221Z,14.40
2022-10-13T13:45:17.337Z,9.30
2022-10-13T13:47:44.585Z,13.55
2022-10-13T13:50:22.704Z,24.27
2022-10-13T13:52:57.404Z,10.80
2022-10-13T13:55:25.588Z,8.27
2022-10-13T13:57:53.073Z,13.80
2022-10-13T14:00:20.846Z,10.20
2022-10-13T14:02:53.563Z,12.30
2022-10-13T14:05:20.686Z,8.98
2022-10-13T14:07:47.798Z,11.45
2022-10-13T14:10:15.247Z,10.30
2022-10-13T14:12:43.093Z,9.30
2022-10-13T14:15:10.716Z,12.95
2022-10-13T14:17:37.981Z,8.40
2022-10-13T14:20:05.636Z,8.43
2022-10-13T14:22:40.741Z,9.20
2022-10-13T14:25:08.479Z,11.98
2022-10-13T14:27:36.650Z,12.43
2022-10-13T14:30:09.112Z,9.73
2022-10-13T14:32:39.427Z,9.68
2022-10-13T14:35:06.925Z,10.77
2022-10-13T14:37:34.437Z,8.30
2022-10-13T14:40:02.027Z,10.88
2022-10-13T14:42:29.129Z,10.02
2022-10-13T14:44:56.237Z,11.48
2022-10-13T14:47:23.838Z,9.35
2022-10-13T14:49:51.215Z,8.98
2022-10-13T14:52:18.342Z,12.00
2022-10-13T14:54:45.766Z,9.55
2022-10-13T14:57:16.261Z,12.77
2022-10-13T14:59:44.130Z,12.85
2022-10-13T15:02:11.778Z,7.10
2022-10-13T15:04:42.082Z,9.82
2022-10-13T15:07:09.199Z,13.27
2022-10-13T15:09:52.714Z,7.28
2022-10-13T15:12:20.987Z,11.15
2022-10-13T15:14:48.446Z,8.30
2022-10-13T15:17:15.515Z,12.05
2022-10-13T15:19:42.675Z,9.98
2022-10-13T15:22:10.235Z,13.10
2022-10-13T15:24:37.330Z,9.80
2022-10-13T15:27:04.427Z,8.05
2022-10-13T15:29:32.343Z,16.23
2022-10-13T15:32:09.023Z,11.38
2022-10-13T15:34:38.397Z,9.00
2022-10-13T15:37:06.115Z,12.55
2022-10-13T15:39:33.542Z,18.38
2022-10-13T15:42:00.695Z,10.00
2022-10-13T15:44:28.159Z,10.02
2022-10-13T15:47:07.481Z,14.32
2022-10-13T15:49:39.790Z,13.32
2022-10-13T15:52:06.921Z,12.48
2022-10-13T15:54:35.713Z,10.18
2022-10-13T15:57:02.916Z,13.65
2022-10-13T15:59:30.027Z,13.32
2022-10-13T16:01:57.133Z,10.13
2022-10-13T16:04:24.308Z,12.52
2022-10-13T16:06:51.427Z,9.40
2022-10-13T16:09:18.519Z,8.00
2022-10-13T16:11:45.579Z,10.73
2022-10-13T16:14:12.671Z,11.95
2022-10-13T16:16:39.744Z,11.15
2022-10-13T16:19:06.948Z,10.80
2022-10-13T16:21:34.064Z,10.75
2022-10-13T16:24:05.395Z,11.90
2022-10-13T16:26:32.469Z,9.75
2022-10-13T16:28:59.590Z,9.73
2022-10-13T16:31:28.163Z,16.25
2022-10-13T16:33:55.759Z,9.43
2022-10-13T16:36:24.471Z,12.23
2022-10-13T16:38:54.614Z,13.90
2022-10-13T16:41:22.167Z,12.05
2022-10-13T16:43:50.126Z,11.80
2022-10-13T16:46:19.343Z,18.15
2022-10-13T16:48:47.088Z,9.82
2022-10-13T16:51:23.230Z,7.75
2022-10-13T16:53:52.715Z,11.25
2022-10-13T16:56:22.268Z,11.57
2022-10-13T16:58:54.374Z,8.80
2022-10-13T17:01:22.065Z,8.95
2022-10-13T17:03:50.702Z,10.40
2022-10-13T17:06:19.911Z,14.20
2022-10-13T17:08:53.397Z,14.98
2022-10-13T17:11:31.350Z,12.82
2022-10-13T17:13:59.607Z,10.88
2022-10-13T17:16:30.581Z,14.02
2022-10-13T17:18:57.756Z,12.93
2022-10-13T17:21:33.598Z,10.05
2022-10-13T17:24:00.855Z,12.13
2022-10-13T17:26:28.031Z,12.52
2022-10-13T17:28:55.273Z,9.70
2022-10-13T17:31:23.700Z,15.52
2022-10-13T17:33:51.698Z,11.68
2022-10-13T17:36:23.999Z,13.18
2022-10-13T17:38:52.887Z,15.57
2022-10-13T17:41:20.377Z,9.70
2022-10-13T17:43:50.925Z,15.95
2022-10-13T17:46:39.584Z,14.75
2022-10-13T17:49:10.403Z,16.35
2022-10-13T17:51:37.839Z,12.73
2022-10-13T17:54:05.754Z,17.15
2022-10-13T17:56:33.255Z,11.75
2022-10-13T17:59:02.302Z,13.52
2022-10-13T18:01:33.086Z,12.52
2022-10-13T18:04:06.355Z,13.55
2022-10-13T18:09:24.500Z,12.25
2022-10-13T18:11:53.721Z,17.10
2022-10-13T18:14:23.358Z,12.98
2022-10-13T18:16:51.308Z,10.43
2022-10-13T18:19:18.535Z,16.27
2022-10-13T18:21:45.650Z,21.55
2022-10-13T18:24:12.828Z,12.85
2022-10-13T18:26:40.284Z,11.98
2022-10-13T18:29:09.053Z,22.40
2022-10-13T18:31:38.094Z,16.73
2022-10-13T18:34:08.034Z,14.15
2022-10-13T18:36:41.267Z,18.02
2022-10-13T18:39:12.170Z,17.20
2022-10-13T18:41:39.945Z,13.95
2022-10-13T18:44:07.611Z,16.23
2022-10-13T18:46:36.656Z,22.10
2022-10-13T18:49:05.015Z,15.95
2022-10-13T18:51:36.258Z,18.63
2022-10-13T18:54:04.899Z,14.07
2022-10-13T18:56:34.010Z,16.52
2022-10-13T18:59:01.884Z,16.67
2022-10-13T19:01:31.475Z,15.00
2022-10-13T19:03:59.178Z,19.98
2022-10-13T19:06:28.806Z,21.25
2022-10-13T19:08:57.917Z,15.77
2022-10-13T19:11:25.140Z,16.67
2022-10-13T19:13:52.315Z,15.18
2022-10-13T19:16:21.881Z,17.48
2022-10-13T19:18:50.159Z,25.08
2022-10-13T19:21:18.614Z,21.45
2022-10-13T19:23:46.006Z,19.90
2022-10-13T19:26:29.722Z,21.88
2022-10-13T19:29:00.255Z,26.90
2022-10-13T19:31:28.910Z,18.85
2022-10-13T19:33:57.472Z,20.95
2022-10-13T19:36:31.696Z,17.42
2022-10-13T19:39:02.462Z,23.77
2022-10-13T19:41:31.533Z,30.65
2022-10-13T19:43:58.878Z,23.55
2022-10-13T19:46:35.652Z,25.85
2022-10-13T19:49:04.249Z,25.52
2022-10-13T19:51:31.502Z,36.38
2022-10-13T19:53:58.610Z,38.25
2022-10-13T19:56:28.164Z,29.38
2022-10-13T19:58:55.267Z,32.05
2022-10-13T20:01:22.852Z,35.40
2022-10-13T20:03:50.831Z,33.90
2022-10-13T20:06:19.002Z,28.80
2022-10-13T20:08:46.537Z,25.92
2022-10-13T20:11:22.210Z,29.55
2022-10-13T20:13:51.415Z,24.50
2022-10-13T20:16:22.029Z,19.88
2022-10-13T20:18:57.619Z,22.75
2022-10-13T20:21:26.861Z,20.77
2022-10-13T20:23:54.030Z,25.50
2022-10-13T20:26:21.469Z,22.90
2022-10-13T20:28:50.219Z,23.10
2022-10-13T20:31:19.587Z,24.67
2022-10-13T20:33:47.346Z,19.95
2022-10-13T20:36:16.704Z,19.15
2022-10-13T20:38:43.977Z,19.35
2022-10-13T20:41:25.107Z,22.08
2022-10-13T20:43:54.638Z,21.33
2022-10-13T20:46:23.607Z,19.52
2022-10-13T20:51:40.795Z,21.38
2022-10-13T20:54:08.198Z,23.42
2022-10-13T20:56:35.774Z,17.48
2022-10-13T20:59:05.648Z,20.42
2022-10-13T21:01:33.374Z,22.23
2022-10-13T21:04:00.502Z,23.88
2022-10-13T21:06:27.710Z,19.35
2022-10-13T21:08:56.670Z,20.75
2022-10-13T21:11:24.896Z,19.50
2022-10-13T21:13:52.685Z,13.48
2022-10-13T21:16:23.589Z,17.33
2022-10-13T21:18:51.811Z,18.17
2022-10-13T21:21:21.354Z,21.48
2022-10-13T21:23:56.490Z,21.08
2022-10-13T21:26:25.398Z,20.15
2022-10-13T21:28:52.573Z,15.88
2022-10-13T21:31:21.822Z,17.92
2022-10-13T21:33:49.945Z,23.45
2022-10-13T21:36:22.666Z,24.83
2022-10-13T21:38:55.982Z,22.07
2022-10-13T21:41:23.838Z,18.67
2022-10-13T21:43:52.455Z,21.02
2022-10-13T21:46:27.217Z,19.35
2022-10-13T21:48:56.779Z,17.40
2022-10-13T21:51:32.229Z,15.73
2022-10-13T21:54:17.439Z,19.08
2022-10-13T21:56:44.622Z,18.40
2022-10-13T21:59:12.807Z,15.88
2022-10-13T22:01:40.312Z,24.05
2022-10-13T22:04:14.578Z,20.80
2022-10-13T22:06:42.251Z,21.20
2022-10-13T22:09:09.969Z,19.70
2022-10-13T22:11:38.494Z,20.70
2022-10-13T22:14:12.156Z,20.20
2022-10-13T22:16:45.715Z,18.75
2022-10-13T22:19:14.446Z,21.95
2022-10-13T22:21:43.803Z,20.27
2022-10-13T22:24:14.098Z,20.63
2022-10-13T22:26:42.813Z,22.02
2022-10-13T22:29:13.282Z,17.02
2022-10-13T22:31:40.796Z,23.48
2022-10-13T22:34:10.677Z,19.92
2022-10-13T22:36:41.069Z,21.63
2022-10-13T22:39:10.954Z,21.08
2022-10-13T22:41:38.068Z,17.88
2022-10-13T22:44:05.235Z,18.33
2022-10-13T22:46:35.936Z,20.48
2022-10-13T22:49:04.379Z,23.67
2022-10-13T22:51:33.706Z,20.98
2022-10-13T22:54:01.294Z,21.63
2022-10-13T22:56:30.475Z,28.25
2022-10-13T22:59:00.135Z,24.98
2022-10-13T23:01:28.308Z,24.63
2022-10-13T23:03:57.878Z,16.88
2022-10-13T23:06:31.389Z,21.35
2022-10-13T23:09:03.742Z,20.80
2022-10-13T23:11:30.899Z,24.92
2022-10-13T23:13:58.042Z,23.23
2022-10-13T23:16:26.206Z,19.95
2022-10-13T23:18:53.527Z,20.35
2022-10-13T23:21:26.207Z,21.77
2022-10-13T23:24:01.543Z,20.25
2022-10-13T23:26:29.270Z,25.38
2022-10-13T23:28:57.476Z,21.02
2022-10-13T23:31:26.060Z,19.83
2022-10-13T23:33:53.475Z,23.42
2022-10-13T23:36:23.865Z,21.83
2022-10-13T23:39:03.661Z,20.10
2022-10-13T23:41:31.510Z,21.25
2022-10-13T23:43:58.772Z,22.17
2022-10-13T23:46:26.002Z,22.05
2022-10-13T23:48:53.092Z,24.20
2022-10-13T23:51:23.080Z,23.77
2022-10-13T23:53:50.877Z,23.60
2022-10-13T23:56:18.890Z,21.50
2022-10-13T23:58:46.700Z,22.67
